Time;durP1;ratioP1;P1;durP2;ratioP2;P2;SDS_P1;SDS_P2;PMS_P1;PMS_P2;Temp;Humidity;BMP_temperature;BMP_pressure;BME280_temperature;BME280_humidity;BME280_pressure;Samples;Min_cycle;Max_cycle;Signal;HPM_P1;HPM_P2
2021/09/28 00:00:26;;;;;;;0.10;0.00;;;15.80;99.90;;;;;;5059259;28;20485;-82
2021/09/28 00:02:52;;;;;;;0.00;0.00;;;15.70;99.90;;;;;;5057897;28;20021;-82
2021/09/28 00:05:17;;;;;;;0.00;0.00;;;15.70;99.90;;;;;;5058617;28;20492;-83
2021/09/28 00:07:43;;;;;;;0.30;0.08;;;15.70;99.90;;;;;;5059335;28;20160;-83
2021/09/28 00:10:08;;;;;;;0.10;0.00;;;15.60;99.90;;;;;;5059555;28;20043;-83
2021/09/28 00:12:34;;;;;;;0.10;0.00;;;15.50;99.90;;;;;;5060398;28;20104;-83
2021/09/28 00:15:00;;;;;;;0.00;0.00;;;15.50;99.90;;;;;;5058533;28;20037;-82
2021/09/28 00:17:25;;;;;;;0.00;0.00;;;15.40;99.90;;;;;;5059875;28;20037;-83
2021/09/28 00:19:51;;;;;;;0.10;0.00;;;15.30;99.90;;;;;;5058709;28;20102;-82
2021/09/28 00:22:16;;;;;;;0.10;0.00;;;15.20;99.90;;;;;;5059406;28;20027;-83
2021/09/28 00:24:42;;;;;;;0.10;0.00;;;15.20;99.90;;;;;;5086291;28;20031;-83
2021/09/28 00:27:08;;;;;;;0.20;0.00;;;15.10;99.90;;;;;;5100120;28;20032;-82
2021/09/28 00:29:33;;;;;;;0.00;0.00;;;15.10;99.90;;;;;;5097839;28;20028;-83
2021/09/28 00:31:59;;;;;;;0.00;0.00;;;15.10;99.90;;;;;;5084971;28;20111;-83
2021/09/28 00:34:24;;;;;;;0.00;0.00;;;15.00;99.90;;;;;;5078504;28;20025;-83
2021/09/28 00:36:50;;;;;;;0.00;0.00;;;15.00;99.90;;;;;;5079168;28;20540;-83
2021/09/28 00:39:15;;;;;;;0.13;0.00;;;14.90;99.90;;;;;;5072652;28;20044;-82
2021/09/28 00:41:42;;;;;;;0.13;0.00;;;14.90;99.90;;;;;;5059145;28;20027;-83
2021/09/28 00:44:08;;;;;;;0.00;0.00;;;14.90;99.90;;;;;;5057759;28;20047;-83
2021/09/28 00:46:33;;;;;;;0.30;0.05;;;14.90;99.90;;;;;;5056990;28;20068;-83
2021/09/28 00:48:59;;;;;;;0.20;0.10;;;14.80;99.90;;;;;;5057051;28;20056;-83
2021/09/28 00:51:26;;;;;;;0.17;0.10;;;14.80;99.90;;;;;;5056752;28;20036;-82
2021/09/28 00:53:53;;;;;;;0.10;0.00;;;14.80;99.90;;;;;;5057875;28;20025;-83
2021/09/28 00:56:21;;;;;;;0.28;0.03;;;14.80;99.90;;;;;;5058811;28;20033;-83
2021/09/28 00:58:47;;;;;;;0.32;0.00;;;14.60;99.90;;;;;;5058354;28;20028;-83
2021/09/28 01:01:15;;;;;;;0.05;0.00;;;14.60;99.90;;;;;;5059026;28;20032;-82
2021/09/28 01:03:40;;;;;;;0.00;0.00;;;14.40;99.90;;;;;;5062944;28;20029;-83
2021/09/28 01:06:06;;;;;;;0.20;0.03;;;14.20;99.90;;;;;;5060139;28;20036;-83
2021/09/28 01:08:33;;;;;;;0.00;0.00;;;14.10;99.90;;;;;;5058937;28;20028;-83
2021/09/28 01:10:59;;;;;;;0.28;0.15;;;13.90;99.90;;;;;;5059039;28;20095;-83
2021/09/28 01:13:25;;;;;;;0.00;0.00;;;13.90;99.90;;;;;;5060923;28;20033;-83
2021/09/28 01:16:00;;;;;;;0.03;0.00;;;13.90;99.90;;;;;;5068477;28;20034;-83
2021/09/28 01:18:31;;;;;;;0.10;0.00;;;13.70;99.90;;;;;;5079415;28;20044;-82
2021/09/28 01:20:58;;;;;;;0.10;0.08;;;13.60;99.90;;;;;;5078614;28;20036;-83
2021/09/28 01:23:23;;;;;;;0.20;0.05;;;13.60;99.90;;;;;;5081203;28;20115;-83
2021/09/28 01:25:49;;;;;;;0.00;0.00;;;13.50;99.90;;;;;;5079860;28;20056;-83
2021/09/28 01:28:15;;;;;;;0.70;0.43;;;13.50;99.90;;;;;;5079690;28;20020;-83
2021/09/28 01:30:40;;;;;;;1.08;0.22;;;13.50;99.90;;;;;;5065491;28;20024;-83
2021/09/28 01:33:06;;;;;;;0.00;0.00;;;13.60;99.90;;;;;;5060416;28;20382;-83
2021/09/28 01:35:32;;;;;;;0.20;0.00;;;13.50;99.90;;;;;;5080708;28;20051;-83
2021/09/28 01:37:58;;;;;;;0.00;0.00;;;13.60;99.90;;;;;;5080963;28;20094;-83
2021/09/28 01:40:23;;;;;;;0.17;0.10;;;13.60;99.90;;;;;;5078848;28;20080;-83
2021/09/28 01:42:50;;;;;;;0.28;0.10;;;13.60;99.90;;;;;;5074415;28;20094;-83
2021/09/28 01:45:16;;;;;;;0.55;0.40;;;13.50;99.90;;;;;;5057544;28;20021;-83
2021/09/28 01:47:42;;;;;;;0.68;0.10;;;13.50;99.90;;;;;;5059459;28;20021;-83
2021/09/28 01:50:08;;;;;;;0.22;0.00;;;13.50;99.90;;;;;;5058047;28;20147;-83
2021/09/28 01:52:37;;;;;;;0.00;0.00;;;13.50;99.90;;;;;;5059344;28;20064;-83
2021/09/28 01:55:05;;;;;;;0.08;0.03;;;13.50;99.90;;;;;;5057411;28;20111;-83
2021/09/28 01:57:30;;;;;;;0.22;0.20;;;13.50;99.90;;;;;;5056686;28;20033;-84
2021/09/28 01:59:56;;;;;;;0.00;0.00;;;13.50;99.90;;;;;;5057987;28;20374;-83
2021/09/28 02:02:21;;;;;;;0.00;0.00;;;13.60;99.90;;;;;;5056569;28;20017;-84
2021/09/28 02:04:47;;;;;;;0.00;0.00;;;13.60;99.90;;;;;;5073979;28;20575;-84
2021/09/28 02:07:12;;;;;;;0.47;0.20;;;13.60;99.90;;;;;;5058616;28;20021;-83
2021/09/28 02:09:38;;;;;;;0.00;0.00;;;13.70;99.90;;;;;;5057510;28;20025;-84
2021/09/28 02:12:04;;;;;;;0.10;0.10;;;13.70;99.90;;;;;;5055882;28;20084;-83
2021/09/28 02:14:30;;;;;;;0.28;0.00;;;13.60;99.90;;;;;;5056778;28;20451;-83
2021/09/28 02:16:56;;;;;;;0.10;0.00;;;13.60;99.90;;;;;;5058479;28;20148;-83
2021/09/28 02:19:22;;;;;;;0.00;0.00;;;13.60;99.90;;;;;;5056042;28;20029;-83
2021/09/28 02:21:48;;;;;;;0.25;0.00;;;13.60;99.90;;;;;;5055915;28;20032;-84
2021/09/28 02:24:15;;;;;;;0.00;0.00;;;13.50;99.90;;;;;;5066562;28;20103;-84
2021/09/28 02:26:41;;;;;;;0.40;0.10;;;13.60;99.90;;;;;;5072698;28;20025;-83
2021/09/28 02:29:07;;;;;;;0.35;0.10;;;13.60;99.90;;;;;;5057396;28;20035;-83
2021/09/28 02:31:33;;;;;;;1.45;0.10;;;13.70;99.90;;;;;;5053980;28;20108;-85
2021/09/28 02:33:58;;;;;;;0.20;0.00;;;13.70;99.90;;;;;;5055398;28;20036;-84
2021/09/28 02:36:24;;;;;;;0.10;0.10;;;13.60;99.90;;;;;;5067058;28;20082;-84
2021/09/28 02:38:49;;;;;;;0.10;0.00;;;13.70;99.90;;;;;;5076702;28;20028;-83
2021/09/28 02:41:15;;;;;;;0.00;0.00;;;13.70;99.90;;;;;;5070542;28;20033;-84
2021/09/28 02:43:41;;;;;;;0.00;0.00;;;13.70;99.90;;;;;;5056295;28;20040;-84
2021/09/28 02:46:06;;;;;;;0.03;0.03;;;13.70;99.90;;;;;;5062875;28;20039;-83
2021/09/28 02:48:32;;;;;;;0.10;0.00;;;13.80;99.90;;;;;;5071139;28;20033;-84
2021/09/28 02:50:58;;;;;;;0.00;0.00;;;13.70;99.90;;;;;;5075744;28;20044;-84
2021/09/28 02:53:24;;;;;;;0.10;0.00;;;13.80;99.90;;;;;;5075545;28;20029;-83
2021/09/28 02:55:49;;;;;;;0.75;0.17;;;13.70;99.90;;;;;;5076157;28;20056;-84
2021/09/28 02:58:15;;;;;;;0.32;0.10;;;13.70;99.90;;;;;;5062102;28;20045;-84
2021/09/28 03:00:40;;;;;;;0.10;0.10;;;13.70;99.90;;;;;;5061106;28;20032;-83
2021/09/28 03:03:06;;;;;;;0.10;0.08;;;13.70;99.90;;;;;;5062945;28;20029;-84
2021/09/28 03:05:32;;;;;;;0.00;0.00;;;13.70;99.90;;;;;;5063983;28;20017;-84
2021/09/28 03:07:57;;;;;;;0.03;0.00;;;13.70;99.90;;;;;;5060481;28;20025;-83
2021/09/28 03:10:23;;;;;;;0.40;0.08;;;13.70;99.90;;;;;;5060726;28;20389;-83
2021/09/28 03:12:49;;;;;;;0.10;0.10;;;13.70;99.90;;;;;;5076013;28;20021;-84
2021/09/28 03:15:14;;;;;;;0.20;0.10;;;13.60;99.90;;;;;;5061073;28;20108;-84
2021/09/28 03:17:41;;;;;;;0.00;0.00;;;13.70;99.90;;;;;;5058250;28;20029;-84
2021/09/28 03:20:08;;;;;;;0.57;0.03;;;13.60;99.90;;;;;;5059959;28;20032;-84
2021/09/28 03:22:34;;;;;;;0.03;0.00;;;13.60;99.90;;;;;;5059135;28;20667;-84
2021/09/28 03:25:00;;;;;;;0.30;0.10;;;13.50;99.90;;;;;;5074219;28;20107;-84
2021/09/28 03:27:25;;;;;;;0.00;0.00;;;13.50;99.90;;;;;;5080185;28;20028;-83
2021/09/28 03:29:51;;;;;;;0.20;0.00;;;13.50;99.90;;;;;;5079495;28;20108;-84
2021/09/28 03:32:16;;;;;;;0.38;0.10;;;13.40;99.90;;;;;;5069946;28;20150;-84
2021/09/28 03:34:42;;;;;;;0.20;0.00;;;13.40;99.90;;;;;;5060977;28;20044;-83
2021/09/28 03:37:07;;;;;;;0.05;0.00;;;13.40;99.90;;;;;;5059297;28;20182;-83
2021/09/28 03:39:33;;;;;;;0.28;0.00;;;13.40;99.90;;;;;;5060154;28;20057;-84
2021/09/28 03:41:59;;;;;;;0.20;0.00;;;13.30;99.90;;;;;;5058920;28;20462;-84
2021/09/28 03:44:25;;;;;;;0.30;0.30;;;13.30;99.90;;;;;;5060410;28;20095;-84
2021/09/28 03:46:50;;;;;;;0.75;0.10;;;13.30;99.90;;;;;;5060322;28;20099;-84
2021/09/28 03:49:16;;;;;;;0.00;0.00;;;13.30;99.90;;;;;;5068111;28;20430;-84
2021/09/28 03:51:41;;;;;;;0.88;0.03;;;13.30;99.90;;;;;;5078230;28;20035;-84
2021/09/28 03:54:07;;;;;;;0.00;0.00;;;13.30;99.90;;;;;;5079927;28;20040;-83
2021/09/28 03:56:33;;;;;;;0.10;0.10;;;13.30;99.90;;;;;;5080589;28;20020;-83
2021/09/28 03:58:58;;;;;;;0.68;0.05;;;13.30;99.90;;;;;;5081375;28;20396;-83
2021/09/28 04:01:24;;;;;;;0.00;0.00;;;13.30;99.90;;;;;;5075425;28;20089;-84
2021/09/28 04:03:49;;;;;;;0.05;0.00;;;13.30;99.90;;;;;;5059608;28;20029;-83
2021/09/28 04:06:15;;;;;;;0.10;0.10;;;13.30;99.90;;;;;;5061291;28;20041;-84
2021/09/28 04:08:41;;;;;;;0.13;0.00;;;13.30;99.90;;;;;;5071697;28;20040;-84
2021/09/28 04:11:07;;;;;;;0.10;0.03;;;13.30;99.90;;;;;;5075272;28;20117;-83
2021/09/28 04:13:32;;;;;;;0.00;0.00;;;13.20;99.90;;;;;;5079301;28;20052;-83
2021/09/28 04:15:59;;;;;;;0.10;0.00;;;13.20;99.90;;;;;;5079206;28;20078;-84
2021/09/28 04:18:25;;;;;;;0.25;0.10;;;13.20;99.90;;;;;;5073148;28;20043;-83
2021/09/28 04:20:52;;;;;;;0.63;0.30;;;13.10;99.90;;;;;;5076654;28;20056;-84
2021/09/28 04:23:19;;;;;;;0.10;0.00;;;13.10;99.90;;;;;;5076686;28;20021;-84
2021/09/28 04:25:46;;;;;;;0.80;0.20;;;13.10;99.90;;;;;;5078312;28;20017;-84
2021/09/28 04:28:14;;;;;;;0.10;0.10;;;13.10;99.90;;;;;;5074079;28;20024;-84
2021/09/28 04:30:39;;;;;;;0.10;0.00;;;13.10;99.90;;;;;;5069489;28;20036;-84
2021/09/28 04:33:05;;;;;;;0.43;0.03;;;13.00;99.90;;;;;;5076555;28;20021;-83
2021/09/28 04:35:31;;;;;;;0.32;0.20;;;13.00;99.90;;;;;;5077976;28;20020;-83
2021/09/28 04:37:57;;;;;;;0.00;0.00;;;13.10;99.90;;;;;;5076165;28;20020;-84
2021/09/28 04:40:22;;;;;;;0.00;0.00;;;13.10;99.90;;;;;;5067442;28;20115;-84
2021/09/28 04:42:48;;;;;;;0.00;0.00;;;13.10;99.90;;;;;;5073923;28;20020;-83
2021/09/28 04:45:14;;;;;;;0.03;0.00;;;13.00;99.90;;;;;;5072799;28;20025;-83
2021/09/28 04:47:39;;;;;;;0.65;0.10;;;13.00;99.90;;;;;;5069627;28;20024;-83
2021/09/28 04:50:06;;;;;;;0.43;0.20;;;13.00;99.90;;;;;;5071980;28;20035;-83
2021/09/28 04:52:32;;;;;;;1.10;0.43;;;13.00;99.90;;;;;;5071926;28;20107;-83
2021/09/28 04:54:58;;;;;;;0.20;0.10;;;12.90;99.90;;;;;;5070728;28;20036;-83
2021/09/28 04:57:23;;;;;;;0.10;0.00;;;12.90;99.90;;;;;;5067082;28;20039;-83
2021/09/28 04:59:49;;;;;;;0.03;0.00;;;12.90;99.90;;;;;;5069970;28;20025;-83
2021/09/28 05:02:15;;;;;;;0.47;0.47;;;12.90;99.90;;;;;;5071399;28;20384;-84
2021/09/28 05:04:42;;;;;;;0.20;0.10;;;13.00;99.90;;;;;;5071658;28;20039;-83
2021/09/28 05:07:08;;;;;;;0.25;0.10;;;12.80;99.90;;;;;;5072116;28;20366;-83
2021/09/28 05:09:34;;;;;;;0.30;0.10;;;12.70;99.90;;;;;;5072695;28;20031;-83
2021/09/28 05:12:03;;;;;;;0.13;0.10;;;12.70;99.90;;;;;;5073208;28;20743;-83
2021/09/28 05:14:28;;;;;;;0.40;0.10;;;12.70;99.90;;;;;;5072320;28;20568;-83
2021/09/28 05:16:54;;;;;;;0.35;0.10;;;12.60;99.90;;;;;;5068872;28;20064;-83
2021/09/28 05:19:19;;;;;;;0.68;0.30;;;12.60;99.90;;;;;;5073805;28;20025;-83
2021/09/28 05:21:45;;;;;;;0.08;0.00;;;12.60;99.90;;;;;;5072606;28;20021;-82
2021/09/28 05:24:11;;;;;;;0.60;0.40;;;12.60;99.90;;;;;;5072115;28;20431;-83
2021/09/28 05:26:36;;;;;;;0.28;0.03;;;12.60;99.90;;;;;;5071540;28;20016;-83
2021/09/28 05:29:02;;;;;;;0.40;0.10;;;12.50;99.90;;;;;;5072813;28;20052;-83
2021/09/28 05:31:29;;;;;;;0.47;0.15;;;12.50;99.90;;;;;;5057026;28;20075;-83
2021/09/28 05:33:54;;;;;;;0.30;0.10;;;12.50;99.90;;;;;;5068952;28;20124;-83
2021/09/28 05:36:20;;;;;;;0.20;0.10;;;12.50;99.90;;;;;;5072277;28;20545;-83
2021/09/28 05:38:46;;;;;;;0.10;0.10;;;12.50;99.90;;;;;;5079792;28;20048;-82
2021/09/28 05:41:11;;;;;;;0.10;0.10;;;12.50;99.90;;;;;;5086978;28;20074;-83
2021/09/28 05:43:39;;;;;;;0.57;0.35;;;12.50;99.90;;;;;;5071968;28;20016;-83
2021/09/28 05:46:05;;;;;;;0.20;0.10;;;12.50;99.90;;;;;;5072061;28;20009;-83
2021/09/28 05:48:31;;;;;;;1.13;0.63;;;12.50;99.90;;;;;;5079350;28;20031;-83
2021/09/28 05:50:56;;;;;;;0.63;0.30;;;12.50;99.90;;;;;;5086955;28;20020;-83
2021/09/28 05:53:22;;;;;;;0.35;0.10;;;12.50;99.90;;;;;;5090502;28;20020;-83
2021/09/28 05:55:48;;;;;;;1.00;0.10;;;12.50;99.90;;;;;;5089248;28;20032;-83
2021/09/28 05:58:14;;;;;;;0.30;0.15;;;12.50;99.90;;;;;;5088292;28;20032;-83
2021/09/28 06:00:40;;;;;;;0.52;0.20;;;12.50;99.90;;;;;;5088708;28;20008;-84
2021/09/28 06:03:06;;;;;;;0.28;0.20;;;12.50;99.90;;;;;;5090077;28;20012;-83
2021/09/28 06:05:33;;;;;;;0.22;0.10;;;12.60;99.90;;;;;;5089469;28;20020;-84
2021/09/28 06:07:59;;;;;;;0.65;0.20;;;12.60;99.90;;;;;;5087963;28;20020;-84
2021/09/28 06:10:25;;;;;;;0.22;0.20;;;12.60;99.90;;;;;;5090050;28;20027;-84
2021/09/28 06:12:50;;;;;;;0.55;0.32;;;12.60;99.90;;;;;;5081011;28;20470;-83
2021/09/28 06:15:16;;;;;;;0.20;0.10;;;12.60;99.90;;;;;;5088197;28;20032;-84
2021/09/28 06:17:42;;;;;;;0.30;0.10;;;12.70;99.90;;;;;;5090210;28;20024;-82
2021/09/28 06:20:08;;;;;;;0.30;0.13;;;12.70;99.90;;;;;;5090575;28;20028;-81
2021/09/28 06:22:35;;;;;;;0.40;0.30;;;12.80;99.90;;;;;;5089535;28;20843;-81
2021/09/28 06:25:00;;;;;;;0.25;0.10;;;12.80;99.90;;;;;;5095651;28;20237;-82
2021/09/28 06:27:27;;;;;;;0.88;0.40;;;12.90;99.90;;;;;;5091276;28;20050;-81
2021/09/28 06:29:52;;;;;;;8.15;0.60;;;13.00;99.90;;;;;;5091426;28;20028;-82
2021/09/28 06:32:22;;;;;;;0.35;0.22;;;13.10;99.90;;;;;;5077819;28;20093;-82
2021/09/28 06:34:48;;;;;;;0.63;0.30;;;13.10;99.90;;;;;;5071382;28;20048;-84
2021/09/28 06:37:14;;;;;;;1.02;0.50;;;13.20;99.90;;;;;;5072710;28;20024;-83
2021/09/28 06:39:40;;;;;;;0.20;0.10;;;13.20;99.90;;;;;;5074010;28;20066;-85
2021/09/28 06:42:07;;;;;;;0.25;0.15;;;13.30;99.90;;;;;;5086990;28;20021;-85
2021/09/28 06:44:32;;;;;;;0.50;0.20;;;13.40;99.90;;;;;;5085837;28;20021;-84
2021/09/28 06:46:58;;;;;;;0.47;0.20;;;13.40;99.90;;;;;;5089202;28;20028;-84
2021/09/28 06:49:24;;;;;;;0.45;0.30;;;13.40;99.90;;;;;;5077349;28;20698;-84
2021/09/28 06:51:49;;;;;;;0.40;0.20;;;13.50;99.90;;;;;;5078641;28;20431;-85
2021/09/28 06:54:15;;;;;;;0.10;0.10;;;13.60;99.90;;;;;;5080388;28;20025;-85
2021/09/28 06:56:41;;;;;;;0.20;0.20;;;13.60;99.90;;;;;;5080658;28;20025;-85
2021/09/28 06:59:10;;;;;;;0.75;0.20;;;13.60;99.90;;;;;;5067325;28;20017;-84
2021/09/28 07:01:37;;;;;;;0.52;0.30;;;13.60;99.90;;;;;;5079928;28;20036;-84
2021/09/28 07:04:03;;;;;;;0.32;0.20;;;13.60;99.90;;;;;;5081943;28;20026;-84
2021/09/28 07:06:30;;;;;;;0.65;0.30;;;13.60;99.90;;;;;;5087909;28;20017;-84
2021/09/28 07:08:55;;;;;;;0.22;0.10;;;13.60;99.90;;;;;;5088221;28;20046;-84
2021/09/28 07:11:21;;;;;;;0.75;0.30;;;13.60;99.90;;;;;;5085214;28;20029;-84
2021/09/28 07:13:48;;;;;;;3.20;0.77;;;13.70;99.90;;;;;;5085969;28;20028;-84
2021/09/28 07:16:15;;;;;;;0.50;0.20;;;13.80;99.90;;;;;;5088579;28;20029;-84
2021/09/28 07:18:41;;;;;;;0.88;0.28;;;13.90;99.90;;;;;;5089184;28;20062;-84
2021/09/28 07:21:07;;;;;;;0.50;0.20;;;14.00;99.90;;;;;;5078052;28;20085;-84
2021/09/28 07:23:33;;;;;;;0.80;0.30;;;14.20;99.90;;;;;;5075958;28;20032;-83
2021/09/28 07:26:00;;;;;;;0.68;0.28;;;14.30;99.90;;;;;;5093937;28;20024;-83
2021/09/28 07:28:26;;;;;;;1.25;0.85;;;14.30;99.90;;;;;;5089451;28;20029;-84
2021/09/28 07:30:52;;;;;;;0.35;0.20;;;14.40;99.90;;;;;;5080877;28;20047;-84
2021/09/28 07:33:18;;;;;;;0.70;0.50;;;14.40;99.90;;;;;;5090066;28;20031;-84
2021/09/28 07:35:46;;;;;;;0.75;0.38;;;14.40;99.90;;;;;;5089953;28;20029;-84
2021/09/28 07:38:16;;;;;;;0.80;0.35;;;14.50;99.90;;;;;;5084196;28;20029;-82
2021/09/28 07:40:45;;;;;;;1.10;0.70;;;14.60;99.90;;;;;;5080673;28;20084;-82
2021/09/28 07:43:11;;;;;;;1.92;0.85;;;14.70;99.90;;;;;;5093468;28;20048;-82
2021/09/28 07:45:38;;;;;;;1.23;0.57;;;14.80;99.90;;;;;;5095264;28;20090;-83
2021/09/28 07:48:06;;;;;;;1.58;0.50;;;14.80;99.90;;;;;;5085438;28;20036;-81
2021/09/28 07:50:32;;;;;;;1.02;0.50;;;14.80;99.90;;;;;;5080825;28;20035;-83
2021/09/28 07:52:58;;;;;;;1.90;0.80;;;14.70;99.90;;;;;;5097028;28;20028;-82
2021/09/28 07:55:25;;;;;;;0.52;0.22;;;14.80;99.90;;;;;;5097298;28;20036;-83
2021/09/28 07:57:50;;;;;;;0.40;0.28;;;14.80;99.90;;;;;;5075433;28;20029;-83
2021/09/28 08:00:16;;;;;;;1.13;0.77;;;14.90;99.90;;;;;;5076983;28;20051;-83
2021/09/28 08:02:43;;;;;;;1.02;0.43;;;15.00;99.90;;;;;;5095980;28;20009;-84
2021/09/28 08:05:11;;;;;;;0.90;0.50;;;15.10;99.90;;;;;;5093784;28;20066;-84
2021/09/28 08:07:38;;;;;;;0.98;0.30;;;15.20;99.90;;;;;;5096637;28;20021;-83
2021/09/28 08:10:06;;;;;;;1.20;0.60;;;15.20;99.90;;;;;;5095636;28;20029;-83
2021/09/28 08:12:31;;;;;;;2.60;0.90;;;15.40;99.90;;;;;;5094873;28;20025;-83
2021/09/28 08:14:57;;;;;;;0.73;0.40;;;15.50;99.90;;;;;;5080763;28;20036;-84
2021/09/28 08:17:23;;;;;;;2.40;0.45;;;15.60;99.90;;;;;;5075070;28;20052;-84
2021/09/28 08:19:49;;;;;;;1.25;0.60;;;15.60;99.90;;;;;;5074309;28;20032;-84
2021/09/28 08:22:16;;;;;;;1.05;0.57;;;15.70;99.90;;;;;;5073927;28;20067;-84
2021/09/28 08:24:43;;;;;;;0.95;0.50;;;15.80;99.90;;;;;;5089886;28;20017;-83
2021/09/28 08:29:56;;;;;;;1.50;0.73;;;15.80;99.90;;;;;;5089280;28;20042;-84
2021/09/28 08:32:21;;;;;;;1.10;0.60;;;16.00;99.90;;;;;;5088576;28;20056;-84
2021/09/28 08:34:47;;;;;;;1.05;0.52;;;16.20;99.90;;;;;;5084760;28;20512;-83
2021/09/28 08:37:14;;;;;;;1.23;0.70;;;16.30;99.90;;;;;;5084819;28;20106;-83
2021/09/28 08:39:40;;;;;;;0.80;0.50;;;16.40;99.90;;;;;;5087011;28;20048;-83
2021/09/28 08:42:06;;;;;;;0.82;0.40;;;16.30;99.90;;;;;;5091320;28;20028;-83
2021/09/28 08:44:31;;;;;;;0.85;0.52;;;16.20;99.90;;;;;;5091996;28;20029;-84
2021/09/28 08:46:58;;;;;;;0.73;0.47;;;16.00;99.90;;;;;;5087176;28;20559;-83
2021/09/28 08:49:25;;;;;;;1.70;0.73;;;15.80;99.90;;;;;;5079739;28;20056;-84
2021/09/28 08:51:52;;;;;;;0.77;0.52;;;15.60;99.90;;;;;;5092895;28;20047;-83
2021/09/28 08:54:19;;;;;;;0.55;0.30;;;15.40;99.90;;;;;;5087638;28;20025;-84
2021/09/28 08:56:45;;;;;;;1.60;0.77;;;15.50;99.90;;;;;;5090269;28;20469;-84
2021/09/28 08:59:14;;;;;;;1.35;0.68;;;15.60;99.90;;;;;;5093176;28;20024;-84
2021/09/28 09:01:56;;;;;;;1.58;0.40;;;15.70;99.90;;;;;;5059581;28;20032;-85
2021/09/28 09:04:25;;;;;;;1.02;0.52;;;16.00;99.90;;;;;;5086061;28;20088;-83
2021/09/28 09:06:54;;;;;;;1.23;0.50;;;16.20;99.90;;;;;;5094002;28;20023;-83
2021/09/28 09:09:22;;;;;;;1.08;0.50;;;16.10;99.90;;;;;;5093053;28;20058;-83
2021/09/28 09:11:50;;;;;;;1.00;0.45;;;15.90;99.90;;;;;;5093182;28;20033;-83
2021/09/28 09:14:22;;;;;;;1.05;0.52;;;15.90;99.90;;;;;;5089168;28;20042;-83
2021/09/28 09:16:51;;;;;;;0.47;0.30;;;16.00;99.90;;;;;;5105404;28;20035;-84
2021/09/28 09:19:22;;;;;;;0.95;0.47;;;15.90;99.90;;;;;;5090509;28;20020;-84
2021/09/28 09:22:01;;;;;;;0.77;0.40;;;16.00;99.90;;;;;;5085510;28;20024;-85
2021/09/28 09:24:49;;;;;;;0.88;0.30;;;16.30;99.90;;;;;;5093350;28;20028;-85
2021/09/28 09:27:28;;;;;;;0.73;0.40;;;16.50;99.90;;;;;;5090426;28;20556;-85
2021/09/28 09:30:15;;;;;;;1.70;0.50;;;16.60;99.90;;;;;;5085518;28;20025;-85
2021/09/28 09:33:00;;;;;;;0.80;0.50;;;16.90;99.90;;;;;;5073133;28;20025;-85
2021/09/28 09:35:34;;;;;;;1.05;0.43;;;16.90;99.90;;;;;;5088585;28;20093;-85
2021/09/28 09:38:12;;;;;;;0.90;0.30;;;17.00;99.90;;;;;;5089800;28;20029;-84
2021/09/28 09:40:40;;;;;;;0.77;0.30;;;16.80;99.90;;;;;;5071725;28;20033;-85
2021/09/28 09:43:07;;;;;;;0.38;0.30;;;16.50;99.90;;;;;;5071306;28;20032;-85
2021/09/28 09:45:33;;;;;;;2.17;0.40;;;16.40;99.90;;;;;;5072279;28;20036;-84
2021/09/28 09:48:00;;;;;;;0.80;0.40;;;16.20;99.90;;;;;;5072550;28;20025;-84
2021/09/28 09:50:27;;;;;;;0.65;0.38;;;16.30;99.90;;;;;;5078653;28;20033;-85
2021/09/28 09:53:05;;;;;;;0.75;0.40;;;16.50;99.90;;;;;;5092717;28;20031;-85
2021/09/28 09:55:34;;;;;;;0.70;0.30;;;16.40;99.90;;;;;;5092464;28;20054;-85
2021/09/28 09:58:01;;;;;;;1.13;0.38;;;16.40;99.90;;;;;;5089129;28;20049;-85
2021/09/28 10:00:28;;;;;;;0.98;0.40;;;16.40;99.90;;;;;;5090642;28;20023;-85
2021/09/28 10:02:54;;;;;;;1.05;0.32;;;16.40;99.90;;;;;;5091749;28;20016;-85
2021/09/28 10:05:21;;;;;;;0.47;0.32;;;16.30;99.90;;;;;;5089602;28;20085;-84
2021/09/28 10:07:49;;;;;;;1.15;0.55;;;16.20;99.90;;;;;;5070876;28;20017;-85
2021/09/28 10:10:18;;;;;;;1.17;0.30;;;16.20;99.90;;;;;;5100414;28;20095;-85
2021/09/28 10:12:44;;;;;;;0.93;0.50;;;16.30;99.90;;;;;;5088506;28;20033;-85
2021/09/28 10:15:13;;;;;;;0.82;0.68;;;16.20;99.90;;;;;;5071999;28;20025;-84
2021/09/28 10:17:41;;;;;;;0.50;0.30;;;16.20;99.90;;;;;;5071805;28;20040;-85
2021/09/28 10:20:23;;;;;;;1.45;0.65;;;16.40;99.90;;;;;;5070206;28;20112;-84
2021/09/28 10:23:12;;;;;;;0.52;0.20;;;16.70;99.90;;;;;;5108226;28;20020;-84
2021/09/28 10:25:44;;;;;;;0.60;0.32;;;17.00;99.90;;;;;;5095704;28;20021;-83
2021/09/28 10:28:10;;;;;;;0.73;0.40;;;17.30;99.90;;;;;;5088461;28;20070;-84
2021/09/28 10:30:35;;;;;;;0.60;0.30;;;17.40;99.90;;;;;;5074799;28;20024;-84
2021/09/28 10:33:03;;;;;;;1.02;0.50;;;17.40;99.90;;;;;;5070658;28;20032;-84
2021/09/28 10:35:30;;;;;;;0.35;0.25;;;17.60;99.90;;;;;;5096517;28;20033;-84
2021/09/28 10:38:02;;;;;;;3.90;0.70;;;17.50;99.90;;;;;;5093243;28;20041;-85
2021/09/28 10:40:30;;;;;;;1.00;0.30;;;17.40;99.90;;;;;;5088504;28;20036;-85
2021/09/28 10:43:24;;;;;;;0.20;0.20;;;17.20;99.90;;;;;;5076085;28;20046;-84
2021/09/28 10:45:50;;;;;;;0.50;0.20;;;17.00;99.90;;;;;;5087796;28;20020;-84
2021/09/28 10:48:22;;;;;;;0.90;0.40;;;17.00;99.90;;;;;;5088120;28;20031;-84
2021/09/28 10:51:20;;;;;;;1.48;0.60;;;17.00;99.90;;;;;;5089511;28;20029;-84
2021/09/28 10:53:51;;;;;;;0.35;0.20;;;16.80;99.90;;;;;;5088853;28;20074;-84
2021/09/28 10:56:18;;;;;;;0.95;0.30;;;16.90;99.90;;;;;;5086080;28;20036;-84
2021/09/28 10:58:51;;;;;;;0.55;0.35;;;17.00;99.90;;;;;;5089845;28;20040;-84
2021/09/28 11:01:18;;;;;;;0.38;0.20;;;17.20;99.90;;;;;;5089175;28;20029;-83
2021/09/28 11:03:51;;;;;;;0.70;0.40;;;17.30;99.90;;;;;;5082718;28;20025;-85
2021/09/28 11:06:37;;;;;;;1.67;0.73;;;17.60;99.90;;;;;;5085990;28;20027;-84
2021/09/28 11:09:03;;;;;;;0.95;0.63;;;18.00;99.90;;;;;;5088444;28;20072;-85
2021/09/28 11:11:29;;;;;;;0.60;0.30;;;18.10;99.90;;;;;;5082775;28;20059;-87
2021/09/28 11:14:03;;;;;;;0.50;0.35;;;18.30;99.90;;;;;;5093845;28;20054;-87
2021/09/28 11:16:41;;;;;;;0.63;0.30;;;18.30;99.90;;;;;;5084774;28;20025;-87
2021/09/28 11:19:08;;;;;;;0.95;0.40;;;18.40;99.90;;;;;;5096930;28;20013;-87
2021/09/28 11:21:39;;;;;;;0.55;0.20;;;18.00;99.90;;;;;;5095319;28;20103;-87
2021/09/28 11:24:05;;;;;;;0.50;0.30;;;17.80;99.90;;;;;;5094392;28;20020;-87
2021/09/28 11:26:38;;;;;;;0.38;0.25;;;17.70;99.90;;;;;;5093425;28;20051;-87
2021/09/28 11:29:06;;;;;;;1.60;0.60;;;18.00;99.90;;;;;;5092497;28;20162;-87
2021/09/28 11:31:34;;;;;;;0.52;0.25;;;18.30;99.90;;;;;;5093998;28;20127;-87
2021/09/28 11:34:05;;;;;;;1.85;0.73;;;18.40;99.90;;;;;;5093912;28;20008;-88
2021/09/28 11:36:35;;;;;;;1.08;0.45;;;18.40;99.90;;;;;;5098298;28;20048;-87
2021/09/28 11:39:02;;;;;;;0.50;0.30;;;18.60;99.90;;;;;;5098021;28;20102;-87
2021/09/28 11:41:28;;;;;;;1.15;0.30;;;18.70;99.90;;;;;;5097337;28;20096;-87
2021/09/28 11:43:58;;;;;;;0.63;0.22;;;18.80;99.90;;;;;;5096955;28;20016;-87
2021/09/28 11:46:29;;;;;;;2.40;0.73;;;18.60;99.90;;;;;;5093048;28;20017;-87
2021/09/28 11:48:58;;;;;;;0.57;0.30;;;18.40;99.90;;;;;;5094241;28;20586;-86
2021/09/28 11:51:33;;;;;;;0.43;0.28;;;18.50;99.90;;;;;;5106285;28;20024;-86
2021/09/28 11:54:06;;;;;;;0.57;0.32;;;18.50;99.90;;;;;;5102756;28;20009;-86
2021/09/28 11:56:34;;;;;;;1.27;0.32;;;18.50;99.90;;;;;;5093692;28;20024;-87
2021/09/28 11:59:18;;;;;;;0.82;0.40;;;18.60;99.90;;;;;;5097293;28;20021;-87
2021/09/28 12:01:45;;;;;;;0.65;0.30;;;18.60;99.90;;;;;;5090965;28;20042;-87
2021/09/28 12:04:16;;;;;;;1.15;0.50;;;18.70;99.50;;;;;;5092583;28;20040;-87
2021/09/28 12:07:10;;;;;;;1.00;0.40;;;18.80;99.50;;;;;;5093356;28;20035;-85
2021/09/28 12:09:45;;;;;;;1.25;0.35;;;18.60;99.40;;;;;;5093435;28;20027;-84
2021/09/28 12:12:16;;;;;;;0.80;0.40;;;18.50;99.80;;;;;;5081363;28;20017;-85
2021/09/28 12:14:44;;;;;;;0.70;0.30;;;18.50;99.50;;;;;;5091350;28;20037;-85
2021/09/28 12:17:20;;;;;;;0.57;0.45;;;18.50;99.90;;;;;;5090232;28;20016;-85
2021/09/28 12:19:47;;;;;;;0.73;0.30;;;18.70;99.90;;;;;;5082336;28;20573;-85
2021/09/28 12:22:26;;;;;;;0.70;0.32;;;18.70;99.60;;;;;;5094666;28;20099;-85
2021/09/28 12:24:54;;;;;;;0.45;0.28;;;18.90;98.80;;;;;;5099340;28;20059;-86
2021/09/28 12:27:20;;;;;;;0.40;0.28;;;19.00;99.10;;;;;;5100060;28;20016;-84
2021/09/28 12:29:49;;;;;;;0.50;0.28;;;19.20;99.20;;;;;;5081908;28;20025;-85
2021/09/28 12:32:28;;;;;;;1.20;0.30;;;19.50;98.80;;;;;;5092532;28;20031;-86
2021/09/28 12:35:09;;;;;;;0.82;0.50;;;19.60;98.30;;;;;;5083274;28;20044;-84
2021/09/28 12:37:45;;;;;;;0.50;0.25;;;19.80;98.50;;;;;;5083222;28;20025;-82
2021/09/28 12:40:14;;;;;;;0.45;0.20;;;19.60;98.00;;;;;;5091907;28;20024;-85
2021/09/28 12:42:42;;;;;;;0.63;0.25;;;19.60;97.80;;;;;;5091351;28;20027;-83
2021/09/28 12:45:16;;;;;;;1.65;0.40;;;19.60;98.30;;;;;;5091560;28;20008;-84
2021/09/28 12:47:45;;;;;;;1.63;0.57;;;19.50;97.50;;;;;;5089132;28;20016;-85
2021/09/28 12:50:27;;;;;;;0.73;0.25;;;19.40;97.90;;;;;;5063029;22;20042;-84
2021/09/28 12:52:57;;;;;;;;;;;19.00;98.50;;;;;;5013882;28;20159;-82